sensor_id;sensor_type;location;lat;lon;timestamp;temperature;humidity
13898;DHT22;7019;50.766;4.474;2023-04-03T00:00:38;1.40;99.90
13898;DHT22;7019;50.766;4.474;2023-04-03T00:03:05;1.40;99.90
13898;DHT22;7019;50.766;4.474;2023-04-03T00:05:33;1.30;99.90
13898;DHT22;7019;50.766;4.474;2023-04-03T00:08:01;1.30;99.90
13898;DHT22;7019;50.766;4.474;2023-04-03T00:10:30;1.20;99.90
13898;DHT22;7019;50.766;4.474;2023-04-03T00:12:57;1.20;99.90
13898;DHT22;7019;50.766;4.474;2023-04-03T00:15:24;1.20;99.90
13898;DHT22;7019;50.766;4.474;2023-04-03T00:17:51;1.20;99.90
13898;DHT22;7019;50.766;4.474;2023-04-03T00:20:18;1.20;99.90
13898;DHT22;7019;50.766;4.474;2023-04-03T00:22:47;1.20;99.90
13898;DHT22;7019;50.766;4.474;2023-04-03T00:25:14;1.20;99.90
13898;DHT22;7019;50.766;4.474;2023-04-03T00:27:41;1.20;99.90
13898;DHT22;7019;50.766;4.474;2023-04-03T00:30:11;1.20;99.90
13898;DHT22;7019;50.766;4.474;2023-04-03T00:32:39;1.20;99.90
13898;DHT22;7019;50.766;4.474;2023-04-03T00:35:07;1.10;99.90
13898;DHT22;7019;50.766;4.474;2023-04-03T00:37:35;1.10;99.90
13898;DHT22;7019;50.766;4.474;2023-04-03T00:40:04;1.10;99.90
13898;DHT22;7019;50.766;4.474;2023-04-03T00:42:32;1.20;99.90
13898;DHT22;7019;50.766;4.474;2023-04-03T00:45:23;1.20;99.90
13898;DHT22;7019;50.766;4.474;2023-04-03T00:47:50;1.20;99.90
13898;DHT22;7019;50.766;4.474;2023-04-03T00:50:18;1.30;99.90
13898;DHT22;7019;50.766;4.474;2023-04-03T00:52:45;1.30;99.90
13898;DHT22;7019;50.766;4.474;2023-04-03T00:55:16;1.40;99.90
13898;DHT22;7019;50.766;4.474;2023-04-03T00:57:44;1.30;99.90
13898;DHT22;7019;50.766;4.474;2023-04-03T01:00:14;1.40;99.90
13898;DHT22;7019;50.766;4.474;2023-04-03T01:02:43;1.40;99.90
13898;DHT22;7019;50.766;4.474;2023-04-03T01:05:11;1.30;99.90
13898;DHT22;7019;50.766;4.474;2023-04-03T01:07:38;1.30;99.90
13898;DHT22;7019;50.766;4.474;2023-04-03T01:10:09;1.40;99.90
13898;DHT22;7019;50.766;4.474;2023-04-03T01:12:38;1.40;99.90
13898;DHT22;7019;50.766;4.474;2023-04-03T01:15:07;1.40;99.90
13898;DHT22;7019;50.766;4.474;2023-04-03T01:17:37;1.30;99.90
13898;DHT22;7019;50.766;4.474;2023-04-03T01:20:45;1.30;99.90
13898;DHT22;7019;50.766;4.474;2023-04-03T01:23:37;1.40;99.90
13898;DHT22;7019;50.766;4.474;2023-04-03T01:26:06;1.40;99.90
13898;DHT22;7019;50.766;4.474;2023-04-03T01:28:36;1.30;99.90
13898;DHT22;7019;50.766;4.474;2023-04-03T01:31:11;1.30;99.90
13898;DHT22;7019;50.766;4.474;2023-04-03T01:33:42;1.20;99.90
13898;DHT22;7019;50.766;4.474;2023-04-03T01:36:13;1.20;99.90
13898;DHT22;7019;50.766;4.474;2023-04-03T01:38:41;1.20;99.90
13898;DHT22;7019;50.766;4.474;2023-04-03T01:41:08;1.20;99.90
13898;DHT22;7019;50.766;4.474;2023-04-03T01:43:35;1.10;99.90
13898;DHT22;7019;50.766;4.474;2023-04-03T01:46:02;1.10;99.90
13898;DHT22;7019;50.766;4.474;2023-04-03T01:48:29;1.10;99.90
13898;DHT22;7019;50.766;4.474;2023-04-03T01:50:57;1.20;99.90
13898;DHT22;7019;50.766;4.474;2023-04-03T01:53:25;1.20;99.90
13898;DHT22;7019;50.766;4.474;2023-04-03T01:55:52;1.10;99.90
13898;DHT22;7019;50.766;4.474;2023-04-03T01:58:19;1.10;99.90
13898;DHT22;7019;50.766;4.474;2023-04-03T02:00:46;1.10;99.90
13898;DHT22;7019;50.766;4.474;2023-04-03T02:03:13;1.10;99.90
13898;DHT22;7019;50.766;4.474;2023-04-03T02:05:40;1.00;99.90
13898;DHT22;7019;50.766;4.474;2023-04-03T02:08:09;1.00;99.90
13898;DHT22;7019;50.766;4.474;2023-04-03T02:10:36;1.00;99.90
13898;DHT22;7019;50.766;4.474;2023-04-03T02:13:03;1.00;99.90
13898;DHT22;7019;50.766;4.474;2023-04-03T02:15:30;0.90;99.90
13898;DHT22;7019;50.766;4.474;2023-04-03T02:17:57;0.90;99.90
13898;DHT22;7019;50.766;4.474;2023-04-03T02:20:24;0.90;99.90
13898;DHT22;7019;50.766;4.474;2023-04-03T02:22:52;0.90;99.90
13898;DHT22;7019;50.766;4.474;2023-04-03T02:25:20;0.90;99.90
13898;DHT22;7019;50.766;4.474;2023-04-03T02:27:47;0.90;99.90
13898;DHT22;7019;50.766;4.474;2023-04-03T02:30:14;0.90;99.90
13898;DHT22;7019;50.766;4.474;2023-04-03T02:32:41;0.90;99.90
13898;DHT22;7019;50.766;4.474;2023-04-03T02:35:09;0.90;99.90
13898;DHT22;7019;50.766;4.474;2023-04-03T02:37:37;0.90;99.90
13898;DHT22;7019;50.766;4.474;2023-04-03T02:40:05;0.90;99.90
13898;DHT22;7019;50.766;4.474;2023-04-03T02:42:34;0.80;99.90
13898;DHT22;7019;50.766;4.474;2023-04-03T02:45:01;0.80;99.90
13898;DHT22;7019;50.766;4.474;2023-04-03T02:47:28;0.80;99.90
13898;DHT22;7019;50.766;4.474;2023-04-03T02:49:55;0.80;99.90
13898;DHT22;7019;50.766;4.474;2023-04-03T02:52:22;0.80;99.90
13898;DHT22;7019;50.766;4.474;2023-04-03T02:54:49;0.80;99.90
13898;DHT22;7019;50.766;4.474;2023-04-03T02:57:16;0.80;99.90
13898;DHT22;7019;50.766;4.474;2023-04-03T02:59:46;0.70;99.90
13898;DHT22;7019;50.766;4.474;2023-04-03T03:02:13;0.70;99.90
13898;DHT22;7019;50.766;4.474;2023-04-03T03:04:40;0.70;99.90
13898;DHT22;7019;50.766;4.474;2023-04-03T03:07:08;0.60;99.90
13898;DHT22;7019;50.766;4.474;2023-04-03T03:09:35;0.60;99.90
13898;DHT22;7019;50.766;4.474;2023-04-03T03:12:02;0.60;99.90
13898;DHT22;7019;50.766;4.474;2023-04-03T03:14:29;0.50;99.90
13898;DHT22;7019;50.766;4.474;2023-04-03T03:16:57;0.50;99.90
13898;DHT22;7019;50.766;4.474;2023-04-03T03:19:25;0.50;99.90
13898;DHT22;7019;50.766;4.474;2023-04-03T03:21:52;0.40;99.90
13898;DHT22;7019;50.766;4.474;2023-04-03T03:24:19;0.50;99.90
13898;DHT22;7019;50.766;4.474;2023-04-03T03:26:46;0.40;99.90
13898;DHT22;7019;50.766;4.474;2023-04-03T03:29:13;0.40;99.90
13898;DHT22;7019;50.766;4.474;2023-04-03T03:31:40;0.40;99.90
13898;DHT22;7019;50.766;4.474;2023-04-03T03:34:08;0.40;99.90
13898;DHT22;7019;50.766;4.474;2023-04-03T03:36:36;0.40;99.90
13898;DHT22;7019;50.766;4.474;2023-04-03T03:39:03;0.40;99.90
13898;DHT22;7019;50.766;4.474;2023-04-03T03:41:30;0.30;99.90
13898;DHT22;7019;50.766;4.474;2023-04-03T03:43:57;0.40;99.90
13898;DHT22;7019;50.766;4.474;2023-04-03T03:46:24;0.30;99.90
13898;DHT22;7019;50.766;4.474;2023-04-03T03:48:51;0.30;99.90
13898;DHT22;7019;50.766;4.474;2023-04-03T03:51:19;0.30;99.90
13898;DHT22;7019;50.766;4.474;2023-04-03T03:53:46;0.30;99.90
13898;DHT22;7019;50.766;4.474;2023-04-03T03:56:14;0.20;99.90
13898;DHT22;7019;50.766;4.474;2023-04-03T03:58:41;0.20;99.90
13898;DHT22;7019;50.766;4.474;2023-04-03T04:01:08;0.20;99.90
13898;DHT22;7019;50.766;4.474;2023-04-03T04:03:35;0.20;99.90
13898;DHT22;7019;50.766;4.474;2023-04-03T04:06:02;0.20;99.90
13898;DHT22;7019;50.766;4.474;2023-04-03T04:08:31;0.20;99.90
13898;DHT22;7019;50.766;4.474;2023-04-03T04:10:58;0.20;99.90
13898;DHT22;7019;50.766;4.474;2023-04-03T04:13:25;0.20;99.90
13898;DHT22;7019;50.766;4.474;2023-04-03T04:15:52;0.20;99.90
13898;DHT22;7019;50.766;4.474;2023-04-03T04:18:19;0.10;99.90
13898;DHT22;7019;50.766;4.474;2023-04-03T04:20:48;0.10;99.90
13898;DHT22;7019;50.766;4.474;2023-04-03T04:23:15;0.10;99.90
13898;DHT22;7019;50.766;4.474;2023-04-03T04:25:46;0.10;99.90
13898;DHT22;7019;50.766;4.474;2023-04-03T04:28:13;0.00;99.90
13898;DHT22;7019;50.766;4.474;2023-04-03T04:30:40;0.00;99.90
13898;DHT22;7019;50.766;4.474;2023-04-03T04:33:08;0.00;99.90
13898;DHT22;7019;50.766;4.474;2023-04-03T04:35:35;0.00;99.90
13898;DHT22;7019;50.766;4.474;2023-04-03T04:38:02;0.00;99.90
13898;DHT22;7019;50.766;4.474;2023-04-03T04:40:30;-0.10;99.90
13898;DHT22;7019;50.766;4.474;2023-04-03T04:42:58;-0.10;99.90
13898;DHT22;7019;50.766;4.474;2023-04-03T04:45:25;-0.10;99.90
13898;DHT22;7019;50.766;4.474;2023-04-03T04:47:55;-0.10;99.90
13898;DHT22;7019;50.766;4.474;2023-04-03T04:50:22;-0.10;99.90
13898;DHT22;7019;50.766;4.474;2023-04-03T04:52:49;-0.10;99.90
13898;DHT22;7019;50.766;4.474;2023-04-03T04:55:16;-0.20;99.90
13898;DHT22;7019;50.766;4.474;2023-04-03T04:57:43;-0.20;99.90
13898;DHT22;7019;50.766;4.474;2023-04-03T05:00:13;-0.20;99.90
13898;DHT22;7019;50.766;4.474;2023-04-03T05:02:41;-0.20;99.90
13898;DHT22;7019;50.766;4.474;2023-04-03T05:05:08;-0.20;99.90
13898;DHT22;7019;50.766;4.474;2023-04-03T05:07:35;-0.20;99.90
13898;DHT22;7019;50.766;4.474;2023-04-03T05:10:03;-0.20;99.90
13898;DHT22;7019;50.766;4.474;2023-04-03T05:12:31;-0.20;99.90
13898;DHT22;7019;50.766;4.474;2023-04-03T05:14:58;-0.20;99.90
13898;DHT22;7019;50.766;4.474;2023-04-03T05:17:27;-0.20;99.90
13898;DHT22;7019;50.766;4.474;2023-04-03T05:19:53;-0.20;99.90
13898;DHT22;7019;50.766;4.474;2023-04-03T05:22:20;-0.20;99.90
13898;DHT22;7019;50.766;4.474;2023-04-03T05:24:47;-0.10;99.90
13898;DHT22;7019;50.766;4.474;2023-04-03T05:27:15;-0.10;99.90
13898;DHT22;7019;50.766;4.474;2023-04-03T05:29:42;-0.10;99.90
13898;DHT22;7019;50.766;4.474;2023-04-03T05:32:09;-0.10;99.90
13898;DHT22;7019;50.766;4.474;2023-04-03T05:34:38;-0.10;99.90
13898;DHT22;7019;50.766;4.474;2023-04-03T05:37:05;-0.10;99.90
13898;DHT22;7019;50.766;4.474;2023-04-03T05:39:32;0.00;99.90
13898;DHT22;7019;50.766;4.474;2023-04-03T05:41:59;0.00;99.90
13898;DHT22;7019;50.766;4.474;2023-04-03T05:44:27;-0.10;99.90
13898;DHT22;7019;50.766;4.474;2023-04-03T05:46:54;0.00;99.90
13898;DHT22;7019;50.766;4.474;2023-04-03T05:49:21;0.00;99.90
13898;DHT22;7019;50.766;4.474;2023-04-03T05:51:49;0.10;99.90
13898;DHT22;7019;50.766;4.474;2023-04-03T05:54:19;0.10;99.90
13898;DHT22;7019;50.766;4.474;2023-04-03T05:56:48;0.10;99.90
13898;DHT22;7019;50.766;4.474;2023-04-03T05:59:15;0.10;99.90
13898;DHT22;7019;50.766;4.474;2023-04-03T06:01:43;0.20;99.90
13898;DHT22;7019;50.766;4.474;2023-04-03T06:04:10;0.20;99.90
13898;DHT22;7019;50.766;4.474;2023-04-03T06:06:46;0.20;99.90
13898;DHT22;7019;50.766;4.474;2023-04-03T06:09:15;0.20;99.90
13898;DHT22;7019;50.766;4.474;2023-04-03T06:11:43;0.30;99.90
13898;DHT22;7019;50.766;4.474;2023-04-03T06:14:10;0.30;99.90
13898;DHT22;7019;50.766;4.474;2023-04-03T06:16:37;0.40;99.90
13898;DHT22;7019;50.766;4.474;2023-04-03T06:19:05;0.50;99.90
13898;DHT22;7019;50.766;4.474;2023-04-03T06:21:32;0.50;99.90
13898;DHT22;7019;50.766;4.474;2023-04-03T06:23:59;0.50;99.90
13898;DHT22;7019;50.766;4.474;2023-04-03T06:26:29;0.50;99.90
13898;DHT22;7019;50.766;4.474;2023-04-03T06:28:56;0.60;99.90
13898;DHT22;7019;50.766;4.474;2023-04-03T06:31:23;0.70;99.90
13898;DHT22;7019;50.766;4.474;2023-04-03T06:33:50;0.90;99.90
13898;DHT22;7019;50.766;4.474;2023-04-03T06:36:18;1.00;99.90
13898;DHT22;7019;50.766;4.474;2023-04-03T06:38:47;1.10;99.90
13898;DHT22;7019;50.766;4.474;2023-04-03T06:41:14;1.20;99.90
13898;DHT22;7019;50.766;4.474;2023-04-03T06:43:44;1.30;99.90
13898;DHT22;7019;50.766;4.474;2023-04-03T06:46:14;1.40;99.90
13898;DHT22;7019;50.766;4.474;2023-04-03T06:48:43;1.60;99.90
13898;DHT22;7019;50.766;4.474;2023-04-03T06:51:19;2.10;99.90
13898;DHT22;7019;50.766;4.474;2023-04-03T06:53:46;2.70;99.90
13898;DHT22;7019;50.766;4.474;2023-04-03T06:56:14;3.10;99.90
13898;DHT22;7019;50.766;4.474;2023-04-03T06:58:41;3.40;99.90
13898;DHT22;7019;50.766;4.474;2023-04-03T07:01:10;3.50;99.90
13898;DHT22;7019;50.766;4.474;2023-04-03T07:03:38;3.70;99.90
13898;DHT22;7019;50.766;4.474;2023-04-03T07:06:06;3.90;99.90
13898;DHT22;7019;50.766;4.474;2023-04-03T07:08:34;4.20;99.90
13898;DHT22;7019;50.766;4.474;2023-04-03T07:11:01;4.50;99.90
13898;DHT22;7019;50.766;4.474;2023-04-03T07:13:28;5.00;99.90
13898;DHT22;7019;50.766;4.474;2023-04-03T07:15:55;5.60;99.90
13898;DHT22;7019;50.766;4.474;2023-04-03T07:18:24;6.20;99.90
13898;DHT22;7019;50.766;4.474;2023-04-03T07:20:52;6.50;99.90
13898;DHT22;7019;50.766;4.474;2023-04-03T07:23:19;6.90;99.90
13898;DHT22;7019;50.766;4.474;2023-04-03T07:25:47;7.40;99.90
13898;DHT22;7019;50.766;4.474;2023-04-03T07:28:15;7.90;99.90
13898;DHT22;7019;50.766;4.474;2023-04-03T07:30:43;8.30;99.90
13898;DHT22;7019;50.766;4.474;2023-04-03T07:33:11;8.30;99.90
13898;DHT22;7019;50.766;4.474;2023-04-03T07:35:40;8.50;99.90
13898;DHT22;7019;50.766;4.474;2023-04-03T07:38:07;8.30;99.90
13898;DHT22;7019;50.766;4.474;2023-04-03T07:40:35;8.90;99.90
13898;DHT22;7019;50.766;4.474;2023-04-03T07:43:02;9.20;99.90
13898;DHT22;7019;50.766;4.474;2023-04-03T07:45:29;9.30;99.90
13898;DHT22;7019;50.766;4.474;2023-04-03T07:47:56;9.00;99.90
13898;DHT22;7019;50.766;4.474;2023-04-03T07:50:24;9.00;99.90
13898;DHT22;7019;50.766;4.474;2023-04-03T07:52:53;9.40;99.90
13898;DHT22;7019;50.766;4.474;2023-04-03T07:55:23;9.30;99.90
13898;DHT22;7019;50.766;4.474;2023-04-03T07:57:50;9.40;99.90
13898;DHT22;7019;50.766;4.474;2023-04-03T08:00:18;9.10;99.90
13898;DHT22;7019;50.766;4.474;2023-04-03T08:02:45;9.00;99.90
13898;DHT22;7019;50.766;4.474;2023-04-03T08:05:16;9.50;99.90
13898;DHT22;7019;50.766;4.474;2023-04-03T08:07:43;10.00;99.90
13898;DHT22;7019;50.766;4.474;2023-04-03T08:10:11;10.10;99.90
13898;DHT22;7019;50.766;4.474;2023-04-03T08:12:39;10.50;99.90
13898;DHT22;7019;50.766;4.474;2023-04-03T08:15:07;10.60;99.90
13898;DHT22;7019;50.766;4.474;2023-04-03T08:17:35;9.90;99.90
13898;DHT22;7019;50.766;4.474;2023-04-03T08:20:03;9.60;99.90
13898;DHT22;7019;50.766;4.474;2023-04-03T08:22:32;9.70;99.90
13898;DHT22;7019;50.766;4.474;2023-04-03T08:24:59;9.60;99.90
13898;DHT22;7019;50.766;4.474;2023-04-03T08:27:29;9.80;99.90
13898;DHT22;7019;50.766;4.474;2023-04-03T08:29:57;10.00;99.90
13898;DHT22;7019;50.766;4.474;2023-04-03T08:32:24;9.90;99.90
13898;DHT22;7019;50.766;4.474;2023-04-03T08:34:51;10.40;99.90
13898;DHT22;7019;50.766;4.474;2023-04-03T08:37:18;10.60;99.90
13898;DHT22;7019;50.766;4.474;2023-04-03T08:39:46;10.60;99.90
13898;DHT22;7019;50.766;4.474;2023-04-03T08:42:18;10.20;99.90
13898;DHT22;7019;50.766;4.474;2023-04-03T08:44:54;10.50;99.90
13898;DHT22;7019;50.766;4.474;2023-04-03T08:47:27;10.30;99.90
13898;DHT22;7019;50.766;4.474;2023-04-03T08:49:58;10.10;99.90
13898;DHT22;7019;50.766;4.474;2023-04-03T08:52:32;10.40;99.90
13898;DHT22;7019;50.766;4.474;2023-04-03T08:55:02;10.70;99.90
13898;DHT22;7019;50.766;4.474;2023-04-03T08:57:33;10.30;99.90
13898;DHT22;7019;50.766;4.474;2023-04-03T09:00:06;10.00;99.90
13898;DHT22;7019;50.766;4.474;2023-04-03T09:02:40;10.10;99.90
13898;DHT22;7019;50.766;4.474;2023-04-03T09:05:16;10.00;99.90
13898;DHT22;7019;50.766;4.474;2023-04-03T09:07:46;9.50;99.90
13898;DHT22;7019;50.766;4.474;2023-04-03T09:10:15;9.70;99.90
13898;DHT22;7019;50.766;4.474;2023-04-03T09:12:49;9.80;99.90
13898;DHT22;7019;50.766;4.474;2023-04-03T09:15:20;10.30;99.90
13898;DHT22;7019;50.766;4.474;2023-04-03T09:17:57;10.60;99.90
13898;DHT22;7019;50.766;4.474;2023-04-03T09:20:37;10.80;99.90
13898;DHT22;7019;50.766;4.474;2023-04-03T09:23:15;10.50;99.90
13898;DHT22;7019;50.766;4.474;2023-04-03T09:25:43;10.40;99.90
13898;DHT22;7019;50.766;4.474;2023-04-03T09:28:10;9.60;99.90
13898;DHT22;7019;50.766;4.474;2023-04-03T09:30:39;9.40;99.90
13898;DHT22;7019;50.766;4.474;2023-04-03T09:33:07;9.60;99.90
13898;DHT22;7019;50.766;4.474;2023-04-03T09:35:37;9.60;99.90
13898;DHT22;7019;50.766;4.474;2023-04-03T09:38:16;9.50;99.90
13898;DHT22;7019;50.766;4.474;2023-04-03T09:40:45;9.60;99.90
13898;DHT22;7019;50.766;4.474;2023-04-03T09:43:25;9.70;99.90
13898;DHT22;7019;50.766;4.474;2023-04-03T09:45:55;10.20;99.90
13898;DHT22;7019;50.766;4.474;2023-04-03T09:48:23;10.70;99.90
13898;DHT22;7019;50.766;4.474;2023-04-03T09:50:56;10.70;99.90
13898;DHT22;7019;50.766;4.474;2023-04-03T09:53:31;10.50;99.90
13898;DHT22;7019;50.766;4.474;2023-04-03T09:56:02;10.50;99.90
13898;DHT22;7019;50.766;4.474;2023-04-03T09:58:31;10.50;99.90
13898;DHT22;7019;50.766;4.474;2023-04-03T10:01:02;10.40;99.90
13898;DHT22;7019;50.766;4.474;2023-04-03T10:03:32;10.40;99.90
13898;DHT22;7019;50.766;4.474;2023-04-03T10:06:00;10.40;99.90
13898;DHT22;7019;50.766;4.474;2023-04-03T10:08:30;10.30;99.90
13898;DHT22;7019;50.766;4.474;2023-04-03T10:11:09;10.50;99.90
13898;DHT22;7019;50.766;4.474;2023-04-03T10:13:49;10.40;99.90
13898;DHT22;7019;50.766;4.474;2023-04-03T10:16:20;10.40;99.90
13898;DHT22;7019;50.766;4.474;2023-04-03T10:18:59;10.10;99.90
13898;DHT22;7019;50.766;4.474;2023-04-03T10:21:35;9.90;99.90
13898;DHT22;7019;50.766;4.474;2023-04-03T10:24:10;10.10;99.90
13898;DHT22;7019;50.766;4.474;2023-04-03T10:26:45;10.10;99.90
13898;DHT22;7019;50.766;4.474;2023-04-03T10:29:23;10.20;99.90
13898;DHT22;7019;50.766;4.474;2023-04-03T10:31:59;9.60;99.80
13898;DHT22;7019;50.766;4.474;2023-04-03T10:34:31;9.70;99.90
13898;DHT22;7019;50.766;4.474;2023-04-03T10:37:05;9.80;99.90
13898;DHT22;7019;50.766;4.474;2023-04-03T10:39:43;9.80;99.90
13898;DHT22;7019;50.766;4.474;2023-04-03T10:42:17;9.80;99.90
13898;DHT22;7019;50.766;4.474;2023-04-03T10:45:01;10.00;99.90
13898;DHT22;7019;50.766;4.474;2023-04-03T10:47:40;10.00;99.90
13898;DHT22;7019;50.766;4.474;2023-04-03T10:50:26;10.20;99.90
13898;DHT22;7019;50.766;4.474;2023-04-03T10:53:00;10.20;99.90
13898;DHT22;7019;50.766;4.474;2023-04-03T10:55:34;10.20;99.90
13898;DHT22;7019;50.766;4.474;2023-04-03T10:58:03;10.00;99.20
13898;DHT22;7019;50.766;4.474;2023-04-03T11:00:36;10.20;99.90
13898;DHT22;7019;50.766;4.474;2023-04-03T11:03:12;10.00;99.60
13898;DHT22;7019;50.766;4.474;2023-04-03T11:05:43;9.90;99.20
13898;DHT22;7019;50.766;4.474;2023-04-03T11:08:17;9.60;97.90
13898;DHT22;7019;50.766;4.474;2023-04-03T11:10:49;10.00;97.60
13898;DHT22;7019;50.766;4.474;2023-04-03T11:13:21;9.90;96.80
13898;DHT22;7019;50.766;4.474;2023-04-03T11:15:51;10.10;97.10
13898;DHT22;7019;50.766;4.474;2023-04-03T11:18:22;10.10;98.40
13898;DHT22;7019;50.766;4.474;2023-04-03T11:20:59;10.20;97.00
13898;DHT22;7019;50.766;4.474;2023-04-03T11:23:32;9.80;97.80
13898;DHT22;7019;50.766;4.474;2023-04-03T11:26:10;9.90;99.50
13898;DHT22;7019;50.766;4.474;2023-04-03T11:28:38;10.10;99.10
13898;DHT22;7019;50.766;4.474;2023-04-03T11:31:22;10.10;99.70
13898;DHT22;7019;50.766;4.474;2023-04-03T11:34:02;10.10;99.90
13898;DHT22;7019;50.766;4.474;2023-04-03T11:36:34;10.20;99.90
13898;DHT22;7019;50.766;4.474;2023-04-03T11:39:15;10.20;99.70
13898;DHT22;7019;50.766;4.474;2023-04-03T11:41:43;10.20;99.40
13898;DHT22;7019;50.766;4.474;2023-04-03T11:44:30;10.20;98.20
13898;DHT22;7019;50.766;4.474;2023-04-03T11:47:00;10.20;99.00
13898;DHT22;7019;50.766;4.474;2023-04-03T11:49:59;10.10;96.60
13898;DHT22;7019;50.766;4.474;2023-04-03T11:52:57;10.40;96.50
13898;DHT22;7019;50.766;4.474;2023-04-03T11:55:56;10.50;98.00
13898;DHT22;7019;50.766;4.474;2023-04-03T11:58:25;10.60;94.80
13898;DHT22;7019;50.766;4.474;2023-04-03T12:01:01;10.40;95.50
13898;DHT22;7019;50.766;4.474;2023-04-03T12:10:18;10.60;96.80
13898;DHT22;7019;50.766;4.474;2023-04-03T12:13:00;10.70;97.10
13898;DHT22;7019;50.766;4.474;2023-04-03T12:15:51;11.00;96.70
13898;DHT22;7019;50.766;4.474;2023-04-03T12:18:43;10.60;97.20
13898;DHT22;7019;50.766;4.474;2023-04-03T12:21:11;10.70;97.00
13898;DHT22;7019;50.766;4.474;2023-04-03T12:23:58;10.80;96.40
13898;DHT22;7019;50.766;4.474;2023-04-03T12:26:30;10.30;94.80
13898;DHT22;7019;50.766;4.474;2023-04-03T12:28:59;10.40;96.20
13898;DHT22;7019;50.766;4.474;2023-04-03T12:31:38;10.70;96.50
13898;DHT22;7019;50.766;4.474;2023-04-03T12:34:24;10.30;95.60
13898;DHT22;7019;50.766;4.474;2023-04-03T12:37:00;10.40;95.80
13898;DHT22;7019;50.766;4.474;2023-04-03T12:39:47;10.60;94.40
13898;DHT22;7019;50.766;4.474;2023-04-03T12:42:32;10.80;94.40
13898;DHT22;7019;50.766;4.474;2023-04-03T12:45:02;10.30;92.60
13898;DHT22;7019;50.766;4.474;2023-04-03T12:47:35;10.40;94.00
13898;DHT22;7019;50.766;4.474;2023-04-03T12:50:13;10.50;93.50
13898;DHT22;7019;50.766;4.474;2023-04-03T12:52:45;10.60;94.20
13898;DHT22;7019;50.766;4.474;2023-04-03T12:55:15;10.70;94.30
13898;DHT22;7019;50.766;4.474;2023-04-03T12:57:44;11.10;93.90
13898;DHT22;7019;50.766;4.474;2023-04-03T13:00:30;11.00;93.80
13898;DHT22;7019;50.766;4.474;2023-04-03T13:02:59;11.00;93.20
13898;DHT22;7019;50.766;4.474;2023-04-03T13:05:27;10.70;91.60
13898;DHT22;7019;50.766;4.474;2023-04-03T13:07:59;10.90;92.60
13898;DHT22;7019;50.766;4.474;2023-04-03T13:10:27;10.60;90.90
13898;DHT22;7019;50.766;4.474;2023-04-03T13:12:57;10.70;92.40
13898;DHT22;7019;50.766;4.474;2023-04-03T13:15:28;10.80;90.30
13898;DHT22;7019;50.766;4.474;2023-04-03T13:17:56;10.50;91.30
13898;DHT22;7019;50.766;4.474;2023-04-03T13:20:26;10.50;92.30
13898;DHT22;7019;50.766;4.474;2023-04-03T13:22:57;10.50;91.40
13898;DHT22;7019;50.766;4.474;2023-04-03T13:25:29;10.60;91.70
13898;DHT22;7019;50.766;4.474;2023-04-03T13:28:00;10.70;89.70
13898;DHT22;7019;50.766;4.474;2023-04-03T13:30:29;10.70;90.90
13898;DHT22;7019;50.766;4.474;2023-04-03T13:32:59;10.60;90.10
13898;DHT22;7019;50.766;4.474;2023-04-03T13:35:32;11.00;90.20
13898;DHT22;7019;50.766;4.474;2023-04-03T13:38:02;11.30;91.80
13898;DHT22;7019;50.766;4.474;2023-04-03T13:40:31;11.10;87.20
13898;DHT22;7019;50.766;4.474;2023-04-03T13:43:02;10.90;89.10
13898;DHT22;7019;50.766;4.474;2023-04-03T13:45:30;10.80;90.50
13898;DHT22;7019;50.766;4.474;2023-04-03T13:48:16;10.90;90.10
13898;DHT22;7019;50.766;4.474;2023-04-03T13:50:55;10.70;88.60
13898;DHT22;7019;50.766;4.474;2023-04-03T13:53:23;10.60;89.20
13898;DHT22;7019;50.766;4.474;2023-04-03T13:56:06;10.90;92.00
13898;DHT22;7019;50.766;4.474;2023-04-03T13:58:36;10.80;92.10
13898;DHT22;7019;50.766;4.474;2023-04-03T14:01:14;10.70;90.80
13898;DHT22;7019;50.766;4.474;2023-04-03T14:03:46;10.60;90.40
13898;DHT22;7019;50.766;4.474;2023-04-03T14:06:15;10.40;91.00
13898;DHT22;7019;50.766;4.474;2023-04-03T14:08:43;10.50;90.90
13898;DHT22;7019;50.766;4.474;2023-04-03T14:11:15;10.50;91.50
13898;DHT22;7019;50.766;4.474;2023-04-03T14:13:45;10.50;92.20
13898;DHT22;7019;50.766;4.474;2023-04-03T14:16:14;10.60;91.60
13898;DHT22;7019;50.766;4.474;2023-04-03T14:18:43;10.70;91.10
13898;DHT22;7019;50.766;4.474;2023-04-03T14:21:12;10.60;86.10
13898;DHT22;7019;50.766;4.474;2023-04-03T14:23:39;10.40;90.20
13898;DHT22;7019;50.766;4.474;2023-04-03T14:26:10;10.40;90.70
13898;DHT22;7019;50.766;4.474;2023-04-03T14:28:39;10.50;90.70
13898;DHT22;7019;50.766;4.474;2023-04-03T14:31:08;10.40;90.60
13898;DHT22;7019;50.766;4.474;2023-04-03T14:33:37;10.30;90.90
13898;DHT22;7019;50.766;4.474;2023-04-03T14:36:12;10.40;90.50
13898;DHT22;7019;50.766;4.474;2023-04-03T14:38:40;10.50;90.80
13898;DHT22;7019;50.766;4.474;2023-04-03T14:41:09;10.70;90.00
13898;DHT22;7019;50.766;4.474;2023-04-03T14:43:37;10.60;89.40
13898;DHT22;7019;50.766;4.474;2023-04-03T14:46:05;10.40;90.40
13898;DHT22;7019;50.766;4.474;2023-04-03T14:48:38;10.30;90.40
13898;DHT22;7019;50.766;4.474;2023-04-03T14:51:05;10.40;89.90
13898;DHT22;7019;50.766;4.474;2023-04-03T14:53:33;10.30;89.50
13898;DHT22;7019;50.766;4.474;2023-04-03T14:56:00;10.30;90.80
13898;DHT22;7019;50.766;4.474;2023-04-03T14:58:28;10.30;91.30
13898;DHT22;7019;50.766;4.474;2023-04-03T15:00:56;10.30;91.00
13898;DHT22;7019;50.766;4.474;2023-04-03T15:03:23;10.50;91.50
13898;DHT22;7019;50.766;4.474;2023-04-03T15:05:51;10.60;91.10
13898;DHT22;7019;50.766;4.474;2023-04-03T15:08:21;10.40;90.50
13898;DHT22;7019;50.766;4.474;2023-04-03T15:10:50;10.40;91.80
13898;DHT22;7019;50.766;4.474;2023-04-03T15:13:19;10.50;91.40
13898;DHT22;7019;50.766;4.474;2023-04-03T15:15:47;10.50;91.30
13898;DHT22;7019;50.766;4.474;2023-04-03T15:18:17;10.40;90.40
13898;DHT22;7019;50.766;4.474;2023-04-03T15:20:44;10.50;90.60
13898;DHT22;7019;50.766;4.474;2023-04-03T15:23:14;10.40;91.00
13898;DHT22;7019;50.766;4.474;2023-04-03T15:25:42;10.30;90.80
13898;DHT22;7019;50.766;4.474;2023-04-03T15:28:15;10.30;92.30
13898;DHT22;7019;50.766;4.474;2023-04-03T15:30:44;10.40;92.20
13898;DHT22;7019;50.766;4.474;2023-04-03T15:33:11;10.40;91.00
13898;DHT22;7019;50.766;4.474;2023-04-03T15:35:38;10.30;91.30
13898;DHT22;7019;50.766;4.474;2023-04-03T15:38:05;10.30;91.00
13898;DHT22;7019;50.766;4.474;2023-04-03T15:40:34;10.30;90.10
13898;DHT22;7019;50.766;4.474;2023-04-03T15:43:01;10.30;91.00
13898;DHT22;7019;50.766;4.474;2023-04-03T15:45:29;10.30;91.70
13898;DHT22;7019;50.766;4.474;2023-04-03T15:47:57;10.30;92.40
13898;DHT22;7019;50.766;4.474;2023-04-03T15:50:24;10.20;91.30
13898;DHT22;7019;50.766;4.474;2023-04-03T15:52:52;10.10;91.80
13898;DHT22;7019;50.766;4.474;2023-04-03T15:55:21;10.00;91.10
13898;DHT22;7019;50.766;4.474;2023-04-03T15:57:50;9.90;92.50
13898;DHT22;7019;50.766;4.474;2023-04-03T16:00:17;9.90;92.80
13898;DHT22;7019;50.766;4.474;2023-04-03T16:02:46;9.90;92.90
13898;DHT22;7019;50.766;4.474;2023-04-03T16:05:14;9.90;92.60
13898;DHT22;7019;50.766;4.474;2023-04-03T16:07:43;9.90;92.90
13898;DHT22;7019;50.766;4.474;2023-04-03T16:10:11;9.90;93.40
13898;DHT22;7019;50.766;4.474;2023-04-03T16:12:39;9.90;93.90
13898;DHT22;7019;50.766;4.474;2023-04-03T16:15:09;9.80;93.90
13898;DHT22;7019;50.766;4.474;2023-04-03T16:17:40;9.70;93.70
13898;DHT22;7019;50.766;4.474;2023-04-03T16:20:09;9.70;93.50